createdAt,value
2017-04-09T00:00:28.037Z,28.19
2017-04-09T00:01:38.319Z,28.09
2017-04-09T00:02:48.842Z,28.19
2017-04-09T00:03:59.124Z,28.09
2017-04-09T00:05:09.094Z,28.38
2017-04-09T00:06:19.363Z,28.19
2017-04-09T00:07:29.321Z,28.19
2017-04-09T00:08:39.863Z,28.19
2017-04-09T00:09:50.184Z,28.29
2017-04-09T00:11:00.458Z,28.19
2017-04-09T00:12:10.108Z,28.19
2017-04-09T00:13:20.378Z,28.29
2017-04-09T00:14:30.911Z,28.09
2017-04-09T00:15:41.193Z,28.29
2017-04-09T00:16:51.156Z,28.19
2017-04-09T00:18:01.430Z,28.19
2017-04-09T00:19:11.702Z,28.19
2017-04-09T00:20:22.229Z,28.19
2017-04-09T00:21:32.191Z,28.19
2017-04-09T00:22:42.462Z,28.09
2017-04-09T00:23:52.725Z,28.29
2017-04-09T00:25:02.998Z,28.19
2017-04-09T00:26:13.212Z,28.29
2017-04-09T00:27:23.170Z,28.19
2017-04-09T00:28:33.440Z,28.19
2017-04-09T00:29:43.088Z,28
2017-04-09T00:30:53.054Z,28.09
2017-04-09T00:32:03.574Z,28.19
2017-04-09T00:33:13.546Z,28.19
2017-04-09T00:34:23.210Z,28.29
2017-04-09T00:35:33.491Z,28.09
2017-04-09T00:36:43.151Z,28.09
2017-04-09T00:37:53.358Z,28.29
2017-04-09T00:39:03.644Z,28.19
2017-04-09T00:40:13.925Z,28.29
2017-04-09T00:41:24.198Z,28.09
2017-04-09T00:42:34.466Z,28.19
2017-04-09T00:43:44.703Z,28.19
2017-04-09T00:44:54.658Z,28.19
2017-04-09T00:46:04.626Z,28.19
2017-04-09T00:47:14.927Z,28.09
2017-04-09T00:48:25.199Z,28.09
2017-04-09T00:49:35.725Z,28.09
2017-04-09T00:50:45.987Z,28.09
2017-04-09T00:51:55.960Z,28.09
2017-04-09T00:53:06.232Z,28
2017-04-09T00:54:16.856Z,28
2017-04-09T00:55:27.081Z,28
2017-04-09T00:56:37.099Z,28
2017-04-09T00:57:47.381Z,28.29
2017-04-09T00:58:57.355Z,28.29
2017-04-09T01:00:07.634Z,28.48
2017-04-09T01:01:18.173Z,28.48
2017-04-09T01:02:28.447Z,28.48
2017-04-09T01:03:38.721Z,28.67
2017-04-09T01:04:48.697Z,28.58
2017-04-09T01:05:58.659Z,28.48
2017-04-09T01:07:09.208Z,28.58
2017-04-09T01:08:19.481Z,28.67
2017-04-09T01:09:29.763Z,28.58
2017-04-09T01:10:40.040Z,28.58
2017-04-09T01:11:50.323Z,28.58
2017-04-09T01:13:00.857Z,28.58
2017-04-09T01:14:10.828Z,28.58
2017-04-09T01:15:21.104Z,28.58
2017-04-09T01:16:31.371Z,28.58
2017-04-09T01:17:41.651Z,28.48
2017-04-09T01:18:51.868Z,28.48
2017-04-09T01:20:02.135Z,28.67
2017-04-09T01:21:12.413Z,28.67
2017-04-09T01:22:22.683Z,28.58
2017-04-09T01:23:32.959Z,28.67
2017-04-09T01:24:43.481Z,28.58
2017-04-09T01:25:53.442Z,28.67
2017-04-09T01:27:03.400Z,28.67
2017-04-09T01:28:13.053Z,28.77
2017-04-09T01:29:23.019Z,28.67
2017-04-09T01:30:33.226Z,28.58
2017-04-09T01:31:43.222Z,28.67
2017-04-09T01:32:53.494Z,28.58
2017-04-09T01:34:03.458Z,28.67
2017-04-09T01:35:13.764Z,28.67
2017-04-09T01:36:24.290Z,28.67
2017-04-09T01:37:34.258Z,28.77
2017-04-09T01:38:43.911Z,28.67
2017-04-09T01:39:53.563Z,28.58
2017-04-09T01:41:03.840Z,28.67
2017-04-09T01:42:14.420Z,28.67
2017-04-09T01:43:24.385Z,28.58
2017-04-09T01:44:34.368Z,28.67
2017-04-09T01:45:44.326Z,28.86
2017-04-09T01:46:54.598Z,28.77
2017-04-09T01:48:04.804Z,28.86
2017-04-09T01:49:15.081Z,28.77
2017-04-09T01:50:25.040Z,28.67
2017-04-09T01:51:35.317Z,28.77
2017-04-09T01:52:45.593Z,28.77
2017-04-09T01:53:55.494Z,28.67
2017-04-09T01:55:05.471Z,28.86
2017-04-09T01:56:15.739Z,28.96
2017-04-09T01:57:26.018Z,28.96
2017-04-09T01:58:36.290Z,28.77
2017-04-09T01:59:46.504Z,28.86
2017-04-09T02:00:56.784Z,28.77
2017-04-09T02:02:07.051Z,28.86
2017-04-09T02:03:17.008Z,28.86
2017-04-09T02:04:27.277Z,28.86
2017-04-09T02:05:37.503Z,28.86
2017-04-09T02:06:47.770Z,28.96
2017-04-09T02:07:57.737Z,28.77
2017-04-09T02:09:08.013Z,28.77
2017-04-09T02:10:18.295Z,28.77
2017-04-09T02:11:28.820Z,29.06
2017-04-09T02:12:39.091Z,28.96
2017-04-09T02:13:49.049Z,28.86
2017-04-09T02:14:59.318Z,28.96
2017-04-09T02:16:09.277Z,28.96
2017-04-09T02:17:19.488Z,28.96
2017-04-09T02:18:29.448Z,28.96
2017-04-09T02:19:39.115Z,28.96
2017-04-09T02:20:49.088Z,29.06
2017-04-09T02:21:59.354Z,28.96
2017-04-09T02:23:09.625Z,28.96
2017-04-09T02:24:19.891Z,28.86
2017-04-09T02:25:29.848Z,29.06
2017-04-09T02:26:40.110Z,28.96
2017-04-09T02:27:50.413Z,28.86
2017-04-09T02:29:00.935Z,29.06
2017-04-09T02:30:11.208Z,29.15
2017-04-09T02:31:21.479Z,29.06
2017-04-09T02:32:31.754Z,29.06
2017-04-09T02:33:42.041Z,29.06
2017-04-09T02:34:52.618Z,29.06
2017-04-09T02:36:02.894Z,29.06
2017-04-09T02:37:12.234Z,28.96
2017-04-09T02:38:22.512Z,29.06
2017-04-09T02:39:32.784Z,29.06
2017-04-09T02:40:43.311Z,29.15
2017-04-09T02:41:53.582Z,29.15
2017-04-09T02:43:03.856Z,29.15
2017-04-09T02:44:14.123Z,29.54
2017-04-09T02:45:24.401Z,29.54
2017-04-09T02:46:34.303Z,29.25
2017-04-09T02:47:44.586Z,29.15
2017-04-09T02:48:54.549Z,29.06
2017-04-09T02:50:04.834Z,29.54
2017-04-09T02:51:14.810Z,29.44
2017-04-09T02:52:25.377Z,29.25
2017-04-09T02:53:35.661Z,29.54
2017-04-09T02:54:45.614Z,29.35
2017-04-09T02:55:55.568Z,29.54
2017-04-09T02:57:05.838Z,29.44
2017-04-09T02:58:16.058Z,29.44
2017-04-09T02:59:26.332Z,29.44
2017-04-09T03:00:36.284Z,29.44
2017-04-09T03:01:46.569Z,29.44
2017-04-09T03:02:56.845Z,29.44
2017-04-09T03:04:07.373Z,29.35
2017-04-09T03:05:17.647Z,29.44
2017-04-09T03:06:27.920Z,29.35
2017-04-09T03:07:38.192Z,29.35
2017-04-09T03:08:48.154Z,29.25
2017-04-09T03:09:58.385Z,29.35
2017-04-09T03:11:08.348Z,29.25
2017-04-09T03:12:18.625Z,29.35
2017-04-09T03:13:28.265Z,29.35
2017-04-09T03:14:38.228Z,29.25
2017-04-09T03:15:48.817Z,29.25
2017-04-09T03:16:59.092Z,29.15
2017-04-09T03:18:08.441Z,29.15
2017-04-09T03:19:18.709Z,29.25
2017-04-09T03:20:28.999Z,29.25
2017-04-09T03:21:39.530Z,29.15
2017-04-09T03:22:49.175Z,29.25
2017-04-09T03:23:59.457Z,29.15
2017-04-09T03:25:09.733Z,29.25
2017-04-09T03:26:19.701Z,29.15
2017-04-09T03:27:30.266Z,29.25
2017-04-09T03:28:40.549Z,29.35
2017-04-09T03:29:50.824Z,29.25
2017-04-09T03:31:01.106Z,29.25
2017-04-09T03:32:11.061Z,29.15
2017-04-09T03:33:21.287Z,29.15
2017-04-09T03:34:31.556Z,29.15
2017-04-09T03:35:41.839Z,29.25
2017-04-09T03:36:52.113Z,29.25
2017-04-09T03:38:02.389Z,29.25
2017-04-09T03:39:11.984Z,29.25
2017-04-09T03:40:22.257Z,29.35
2017-04-09T03:41:32.540Z,29.35
2017-04-09T03:42:42.801Z,29.35
2017-04-09T03:43:52.767Z,29.35
2017-04-09T03:45:03.295Z,29.35
2017-04-09T03:46:13.262Z,29.35
2017-04-09T03:47:23.534Z,29.44
2017-04-09T03:48:33.812Z,29.44
2017-04-09T03:49:43.780Z,29.44
2017-04-09T03:50:54.292Z,29.44
2017-04-09T03:52:04.563Z,29.44
2017-04-09T03:53:14.826Z,29.44
2017-04-09T03:54:24.791Z,29.35
2017-04-09T03:55:35.047Z,29.44
2017-04-09T03:56:45.568Z,29.35
2017-04-09T03:57:55.837Z,29.63
2017-04-09T03:59:06.113Z,29.63
2017-04-09T04:00:16.381Z,29.44
2017-04-09T04:01:26.662Z,29.63
2017-04-09T04:02:36.875Z,29.63
2017-04-09T04:03:46.524Z,29.63
2017-04-09T04:04:56.493Z,29.73
2017-04-09T04:06:06.756Z,29.54
2017-04-09T04:07:17.031Z,29.83
2017-04-09T04:08:27.599Z,29.63
2017-04-09T04:09:37.896Z,29.44
2017-04-09T04:10:47.864Z,29.44
2017-04-09T04:11:57.824Z,29.44
2017-04-09T04:13:08.111Z,29.44
2017-04-09T04:14:18.365Z,29.83
2017-04-09T04:15:28.320Z,29.54
2017-04-09T04:16:38.593Z,29.63
2017-04-09T04:17:48.873Z,29.83
2017-04-09T04:18:58.522Z,29.73
2017-04-09T04:20:09.060Z,29.83
2017-04-09T04:21:19.028Z,29.54
2017-04-09T04:22:28.983Z,29.63
2017-04-09T04:23:38.938Z,29.83
2017-04-09T04:24:49.206Z,29.83
2017-04-09T04:25:59.777Z,29.83
2017-04-09T04:27:10.052Z,29.54
2017-04-09T04:28:20.332Z,29.35
2017-04-09T04:29:30.287Z,29.54
2017-04-09T04:30:40.254Z,29.44
2017-04-09T04:31:50.780Z,29.63
2017-04-09T04:33:01.059Z,29.93
2017-04-09T04:34:10.708Z,29.81
2017-04-09T04:35:20.670Z,29.93
2017-04-09T04:36:30.958Z,29.81
2017-04-09T04:37:41.161Z,29.63
2017-04-09T04:38:51.445Z,29.73
2017-04-09T04:40:01.723Z,29.93
2017-04-09T04:41:12.003Z,29.83
2017-04-09T04:42:22.273Z,29.83
2017-04-09T04:43:32.856Z,29.72
2017-04-09T04:44:43.145Z,29.93
2017-04-09T04:45:53.421Z,29.73
2017-04-09T04:47:03.386Z,29.83
2017-04-09T04:48:13.658Z,29.93
2017-04-09T04:49:24.201Z,29.83
2017-04-09T04:50:33.850Z,29.93
2017-04-09T04:51:44.123Z,29.93
2017-04-09T04:52:54.109Z,29.83
2017-04-09T04:54:04.381Z,29.83
2017-04-09T04:55:14.903Z,29.73
2017-04-09T04:56:24.244Z,29.73
2017-04-09T04:57:34.516Z,29.73
2017-04-09T04:58:44.805Z,29.83
2017-04-09T04:59:55.098Z,30.02
2017-04-09T05:01:05.672Z,29.73
2017-04-09T05:02:15.629Z,29.73
2017-04-09T05:03:25.909Z,29.93
2017-04-09T05:04:36.180Z,30.02
2017-04-09T05:05:46.452Z,29.93
2017-04-09T05:06:57.025Z,29.83
2017-04-09T05:08:06.685Z,29.83
2017-04-09T05:09:16.657Z,29.73
2017-04-09T05:10:26.609Z,29.73
2017-04-09T05:11:36.894Z,29.93
2017-04-09T05:12:47.419Z,29.73
2017-04-09T05:13:57.699Z,29.93
2017-04-09T05:15:07.971Z,30.02
2017-04-09T05:16:17.622Z,29.93
2017-04-09T05:17:27.586Z,30.02
2017-04-09T05:18:38.121Z,30
2017-04-09T05:19:48.402Z,30
2017-04-09T05:20:58.675Z,29.93
2017-04-09T05:22:08.943Z,29.93
2017-04-09T05:23:19.219Z,30.02
2017-04-09T05:24:29.737Z,30.02
2017-04-09T05:25:40.011Z,30.02
2017-04-09T05:26:50.280Z,30.02
2017-04-09T05:28:00.550Z,30.11
2017-04-09T05:29:10.198Z,30.11
2017-04-09T05:30:20.769Z,30.02
2017-04-09T05:31:31.044Z,30.21
2017-04-09T05:32:41.330Z,30.19
2017-04-09T05:33:51.607Z,30.21
2017-04-09T05:35:01.871Z,30.11
2017-04-09T05:36:12.079Z,30.21
2017-04-09T05:37:22.041Z,30.02
2017-04-09T05:38:32.311Z,30.02
2017-04-09T05:39:42.269Z,30.11
2017-04-09T05:40:52.230Z,30.02
2017-04-09T05:42:02.759Z,30.02
2017-04-09T05:43:12.406Z,30.21
2017-04-09T05:44:22.698Z,30.11
2017-04-09T05:45:32.969Z,30.02
2017-04-09T05:46:43.241Z,30.11
2017-04-09T05:47:53.763Z,30.11
2017-04-09T05:49:04.053Z,30.11
2017-04-09T05:50:14.325Z,30.02
2017-04-09T05:51:24.272Z,30.21
2017-04-09T05:52:34.552Z,30.31
2017-04-09T05:53:44.758Z,30.11
2017-04-09T05:54:55.034Z,30.11
2017-04-09T05:56:05.306Z,30.21
2017-04-09T05:57:15.578Z,30.02
2017-04-09T05:58:25.837Z,30.02
2017-04-09T05:59:36.045Z,30.5
2017-04-09T06:00:46.328Z,30.6
2017-04-09T06:01:56.333Z,30.5
2017-04-09T06:03:06.306Z,30.5
2017-04-09T06:04:15.959Z,30.5
2017-04-09T06:05:26.170Z,30.5
2017-04-09T06:06:36.140Z,30.4
2017-04-09T06:07:46.425Z,30.4
2017-04-09T06:08:56.395Z,30.4
2017-04-09T06:10:06.672Z,30.4
2017-04-09T06:11:16.877Z,30.4
2017-04-09T06:12:27.160Z,30.4
2017-04-09T06:13:37.438Z,30.31
2017-04-09T06:14:47.397Z,30.31
2017-04-09T06:15:57.043Z,30.4
2017-04-09T06:17:07.269Z,30.4
2017-04-09T06:18:17.555Z,30.31
2017-04-09T06:19:27.838Z,30.4
2017-04-09T06:20:38.121Z,30.4
2017-04-09T06:21:48.399Z,30.4
2017-04-09T06:22:58.927Z,30.4
2017-04-09T06:24:08.888Z,30.4
2017-04-09T06:25:19.178Z,30.21
2017-04-09T06:26:29.447Z,30.4
2017-04-09T06:27:39.734Z,30.4
2017-04-09T06:28:50.256Z,30.6
2017-04-09T06:29:59.898Z,30.4
2017-04-09T06:31:09.863Z,30.5
2017-04-09T06:32:20.158Z,30.5
2017-04-09T06:33:30.434Z,30.5
2017-04-09T06:34:40.345Z,30.4
2017-04-09T06:35:50.631Z,30.5
2017-04-09T06:37:00.910Z,30.5
2017-04-09T06:38:10.884Z,30.4
2017-04-09T06:39:20.836Z,30.4
2017-04-09T06:40:31.410Z,30.5
2017-04-09T06:41:41.379Z,30.6
2017-04-09T06:42:51.659Z,30.6
2017-04-09T06:44:01.940Z,30.5
2017-04-09T06:45:11.906Z,30.79
2017-04-09T06:46:21.512Z,30.5
2017-04-09T06:47:31.815Z,30.79
2017-04-09T06:48:42.091Z,30.69
2017-04-09T06:49:52.368Z,30.69
2017-04-09T06:51:02.653Z,30.69
2017-04-09T06:52:13.198Z,30.5
2017-04-09T06:53:23.462Z,30.69
2017-04-09T06:54:33.771Z,30.69
2017-04-09T06:55:44.046Z,30.69
2017-04-09T06:56:54.009Z,30.69
2017-04-09T06:58:04.525Z,30.69
2017-04-09T06:59:14.491Z,30.69
2017-04-09T07:00:24.779Z,30.69
2017-04-09T07:01:34.747Z,30.6
2017-04-09T07:02:45.019Z,30.69
2017-04-09T07:03:55.598Z,30.69
2017-04-09T07:05:05.570Z,30.6
2017-04-09T07:06:15.835Z,30.6
2017-04-09T07:07:26.114Z,30.5
2017-04-09T07:08:35.766Z,30.5
2017-04-09T07:09:46.044Z,30.69
2017-04-09T07:10:56.322Z,30.69
2017-04-09T07:12:06.613Z,30.79
2017-04-09T07:13:16.577Z,30.79
2017-04-09T07:14:26.857Z,30.79
2017-04-09T07:15:37.068Z,30.79
2017-04-09T07:16:47.346Z,30.6
2017-04-09T07:17:57.314Z,30.5
2017-04-09T07:19:07.601Z,30.69
2017-04-09T07:20:17.871Z,30.6
2017-04-09T07:21:28.402Z,30.6
2017-04-09T07:22:38.380Z,30.69
2017-04-09T07:23:48.663Z,30.79
2017-04-09T07:24:58.317Z,30.79
2017-04-09T07:26:08.289Z,30.69
2017-04-09T07:27:18.868Z,30.79
2017-04-09T07:28:29.143Z,30.6
2017-04-09T07:29:38.823Z,30.69
2017-04-09T07:30:49.115Z,30.6
2017-04-09T07:31:59.075Z,30.6
2017-04-09T07:33:09.602Z,30.5
2017-04-09T07:34:19.880Z,30.5
2017-04-09T07:35:29.847Z,30.79
2017-04-09T07:36:40.120Z,30.69
2017-04-09T07:37:50.390Z,30.5
2017-04-09T07:39:01.025Z,30.69
2017-04-09T07:40:10.672Z,30.79
2017-04-09T07:41:20.947Z,30.4
2017-04-09T07:42:31.224Z,30.6
2017-04-09T07:43:41.507Z,30.5
2017-04-09T07:44:52.057Z,30.79
2017-04-09T07:46:02.037Z,30.5
2017-04-09T07:47:11.698Z,30.69
2017-04-09T07:48:21.991Z,30.69
2017-04-09T07:49:32.273Z,30.6
2017-04-09T07:50:42.847Z,30.5
2017-04-09T07:51:53.122Z,30.6
2017-04-09T07:53:03.405Z,30.6
2017-04-09T07:54:13.705Z,30.5
2017-04-09T07:55:23.970Z,30.6
2017-04-09T07:56:34.200Z,30.6
2017-04-09T07:57:44.478Z,30.6
2017-04-09T07:58:54.769Z,30.5
2017-04-09T08:00:05.048Z,30.21
2017-04-09T08:01:15.339Z,30.4
2017-04-09T08:02:25.870Z,30.5
2017-04-09T08:03:36.147Z,30.4
2017-04-09T08:04:46.446Z,30.4
2017-04-09T08:05:56.741Z,30.5
2017-04-09T08:07:07.051Z,30.4
2017-04-09T08:08:17.582Z,30.4
2017-04-09T08:09:27.552Z,30.4
2017-04-09T08:10:37.825Z,30.4
2017-04-09T08:11:48.101Z,30.4
2017-04-09T08:12:58.070Z,30.4
2017-04-09T08:14:08.609Z,30.4
2017-04-09T08:15:18.900Z,30.4
2017-04-09T08:16:28.865Z,30.5
2017-04-09T08:17:39.145Z,30.02
2017-04-09T08:18:49.425Z,30.5
2017-04-09T08:19:59.947Z,29.93
2017-04-09T08:21:09.921Z,30.02
2017-04-09T08:22:20.194Z,30.31
2017-04-09T08:23:30.164Z,30.11
2017-04-09T08:24:40.447Z,30.31
2017-04-09T08:25:50.659Z,30.13
2017-04-09T08:27:00.934Z,30.21
2017-04-09T08:28:11.214Z,30.13
2017-04-09T08:29:21.494Z,30.11
2017-04-09T08:30:31.802Z,30.13
2017-04-09T08:31:42.387Z,30.04
2017-04-09T08:32:52.663Z,29.74
2017-04-09T08:34:02.325Z,29.94
2017-04-09T08:35:12.615Z,29.73
2017-04-09T08:36:22.590Z,29.74
2017-04-09T08:37:32.511Z,29.94
2017-04-09T08:38:42.790Z,29.74
2017-04-09T08:39:53.069Z,29.84
2017-04-09T08:41:03.035Z,29.84
2017-04-09T08:42:13.324Z,29.84
2017-04-09T08:43:23.896Z,29.84
2017-04-09T08:44:33.240Z,29.94
2017-04-09T08:45:43.519Z,29.84
2017-04-09T08:46:53.800Z,29.84
2017-04-09T08:48:03.791Z,29.65
2017-04-09T08:49:14.333Z,29.55
2017-04-09T08:50:24.621Z,29.94
2017-04-09T08:51:34.587Z,29.84
2017-04-09T08:52:44.561Z,29.65
2017-04-09T08:53:54.526Z,29.65
2017-04-09T08:55:05.094Z,29.46
2017-04-09T08:56:15.388Z,29.84
2017-04-09T08:57:25.353Z,29.55
2017-04-09T08:58:35.653Z,29.65
2017-04-09T08:59:45.632Z,29.55
2017-04-09T09:00:56.208Z,29.46
2017-04-09T09:02:06.484Z,29.74
2017-04-09T09:03:16.787Z,29.46
2017-04-09T09:04:27.069Z,29.65
2017-04-09T09:05:37.366Z,29.36
2017-04-09T09:06:47.586Z,29.46
2017-04-09T09:07:57.563Z,29.27
2017-04-09T09:09:07.848Z,29.46
2017-04-09T09:10:17.534Z,29.27
2017-04-09T09:11:27.501Z,29.17
2017-04-09T09:12:37.731Z,29.17
2017-04-09T09:13:47.705Z,29.27
2017-04-09T09:14:57.993Z,29.27
2017-04-09T09:16:08.286Z,29.17
2017-04-09T09:17:18.566Z,29.36
2017-04-09T09:18:29.098Z,29.46
2017-04-09T09:19:39.098Z,29.65
2017-04-09T09:20:49.075Z,29.55
2017-04-09T09:21:59.359Z,29.17
2017-04-09T09:23:09.663Z,29.07
2017-04-09T09:24:19.585Z,29.07
2017-04-09T09:25:29.239Z,28.97
2017-04-09T09:26:39.530Z,29.07
2017-04-09T09:27:49.802Z,29.07
2017-04-09T09:29:00.096Z,29.07
2017-04-09T09:30:10.627Z,28.88
2017-04-09T09:31:20.925Z,28.97
2017-04-09T09:32:31.231Z,29.17
2017-04-09T09:33:41.527Z,28.97
2017-04-09T09:34:51.824Z,28.97
2017-04-09T09:36:02.383Z,28.78
2017-04-09T09:37:12.361Z,28.88
2017-04-09T09:38:22.666Z,28.78
2017-04-09T09:39:32.642Z,28.69
2017-04-09T09:40:42.943Z,28.59
2017-04-09T09:41:53.472Z,28.49
2017-04-09T09:43:03.443Z,28.59
2017-04-09T09:44:13.746Z,28.69
2017-04-09T09:45:24.032Z,28.59
2017-04-09T09:46:34.315Z,28.49
2017-04-09T09:47:44.587Z,28.02
2017-04-09T09:48:54.874Z,28.02
2017-04-09T09:50:04.845Z,28.11
2017-04-09T09:51:15.148Z,28.02
2017-04-09T09:52:25.144Z,28.2
2017-04-09T09:53:35.108Z,28.2
2017-04-09T09:54:45.400Z,28.2
2017-04-09T09:55:55.726Z,28.2
2017-04-09T09:57:06.032Z,28.11
2017-04-09T09:58:15.708Z,28.2
2017-04-09T09:59:26.271Z,28.2
2017-04-09T10:00:36.572Z,28.2
2017-04-09T10:01:46.556Z,28.3
2017-04-09T10:02:56.523Z,28.11
2017-04-09T10:04:06.196Z,28.3
2017-04-09T10:05:16.732Z,28.3
2017-04-09T10:06:26.735Z,28.3
2017-04-09T10:07:36.715Z,28.11
2017-04-09T10:08:46.694Z,27.92
2017-04-09T10:09:56.692Z,28.02
2017-04-09T10:11:07.258Z,27.92
2017-04-09T10:12:17.255Z,27.92
2017-04-09T10:13:27.576Z,28.02
2017-04-09T10:14:37.263Z,27.92
2017-04-09T10:15:47.556Z,28.02
2017-04-09T10:16:57.481Z,27.92
2017-04-09T10:18:07.789Z,28.02
2017-04-09T10:19:17.472Z,27.82
2017-04-09T10:20:27.468Z,27.62
2017-04-09T10:21:37.777Z,27.62
2017-04-09T10:22:48.022Z,27.53
2017-04-09T10:23:58.338Z,27.62
2017-04-09T10:25:08.325Z,27.72
2017-04-09T10:26:18.334Z,27.82
2017-04-09T10:27:28.636Z,27.44
2017-04-09T10:28:38.924Z,27.72
2017-04-09T10:29:48.959Z,27.34
2017-04-09T10:30:59.265Z,27.24
2017-04-09T10:32:09.590Z,27.34
2017-04-09T10:33:19.908Z,27.44
2017-04-09T10:34:30.161Z,27.53
2017-04-09T10:35:40.471Z,27.53
2017-04-09T10:36:50.767Z,27.34
2017-04-09T10:38:01.063Z,27.44
2017-04-09T10:39:11.359Z,27.44
2017-04-09T10:40:21.914Z,27.44
2017-04-09T10:41:31.893Z,27.44
2017-04-09T10:42:41.901Z,27.34
2017-04-09T10:43:52.203Z,27.24
2017-04-09T10:45:02.509Z,27.24
2017-04-09T10:46:12.739Z,27.34
2017-04-09T10:47:22.723Z,27.05
2017-04-09T10:48:33.007Z,27.44
2017-04-09T10:49:43.018Z,27.34
2017-04-09T10:50:53.336Z,27.44
2017-04-09T10:52:03.882Z,27.44
2017-04-09T10:53:14.203Z,27.24
2017-04-09T10:54:24.496Z,27.44
2017-04-09T10:55:34.478Z,27.24
2017-04-09T10:56:44.796Z,27.34
2017-04-09T10:57:55.369Z,27.15
2017-04-09T10:59:05.344Z,27.24
2017-04-09T11:00:15.354Z,27.24
2017-04-09T11:01:25.633Z,27.34
2017-04-09T11:02:35.617Z,27.34
2017-04-09T11:03:46.170Z,27.34
2017-04-09T11:04:56.466Z,27.24
2017-04-09T11:06:06.784Z,27.24
2017-04-09T11:07:17.077Z,27.34
2017-04-09T11:08:27.384Z,27.24
2017-04-09T11:09:37.941Z,27.15
2017-04-09T11:10:48.259Z,27.24
2017-04-09T11:11:58.545Z,27.15
2017-04-09T11:13:08.526Z,27.15
2017-04-09T11:14:18.529Z,27.34
2017-04-09T11:15:28.778Z,27.15
2017-04-09T11:16:39.096Z,27.15
2017-04-09T11:17:49.407Z,27.15
2017-04-09T11:18:59.383Z,27.24
2017-04-09T11:20:09.693Z,27.24
2017-04-09T11:21:20.251Z,26.95
2017-04-09T11:22:30.581Z,27.24
2017-04-09T11:23:40.258Z,27.15
2017-04-09T11:24:50.597Z,27.24
2017-04-09T11:26:00.897Z,27.05
2017-04-09T11:27:11.454Z,26.95
2017-04-09T11:28:21.741Z,26.95
2017-04-09T11:29:32.029Z,27.05
2017-04-09T11:30:42.341Z,26.76
2017-04-09T11:31:52.636Z,26.87
2017-04-09T11:33:03.176Z,26.86
2017-04-09T11:34:13.493Z,26.86
2017-04-09T11:35:23.839Z,26.78
2017-04-09T11:36:33.817Z,26.87
2017-04-09T11:37:43.796Z,26.95
2017-04-09T11:38:54.359Z,26.86
2017-04-09T11:40:04.662Z,26.76
2017-04-09T11:41:14.991Z,26.86
2017-04-09T11:42:25.281Z,26.78
2017-04-09T11:43:34.959Z,26.86
2017-04-09T11:44:45.190Z,26.78
2017-04-09T11:45:55.479Z,26.86
2017-04-09T11:47:05.162Z,26.76
2017-04-09T11:48:15.469Z,26.76
2017-04-09T11:49:25.756Z,26.86
2017-04-09T11:50:36.317Z,26.68
2017-04-09T11:51:46.620Z,26.57
2017-04-09T11:52:56.924Z,26.68
2017-04-09T11:54:07.213Z,26.76
2017-04-09T11:55:17.509Z,26.67
2017-04-09T11:56:27.748Z,26.78
2017-04-09T11:57:37.768Z,26.78
2017-04-09T11:58:47.755Z,26.76
2017-04-09T11:59:58.044Z,26.68
2017-04-09T12:01:08.031Z,26.67
2017-04-09T12:02:18.577Z,26.76
2017-04-09T12:03:28.915Z,26.86
2017-04-09T12:04:39.215Z,26.95
2017-04-09T12:05:49.187Z,26.97
2017-04-09T12:06:59.526Z,26.86
2017-04-09T12:08:09.839Z,26.95
2017-04-09T12:09:19.847Z,26.76
2017-04-09T12:10:29.848Z,26.68
2017-04-09T12:11:40.144Z,26.76
2017-04-09T12:12:50.450Z,26.67
2017-04-09T12:14:00.994Z,26.67
2017-04-09T12:15:10.961Z,26.67
2017-04-09T12:16:21.253Z,26.68
2017-04-09T12:17:31.558Z,26.58
2017-04-09T12:18:41.860Z,26.57
2017-04-09T12:19:52.414Z,26.67
2017-04-09T12:21:02.701Z,26.67
2017-04-09T12:22:12.997Z,26.58
2017-04-09T12:23:23.300Z,26.58
2017-04-09T12:24:33.601Z,26.68
2017-04-09T12:25:43.834Z,26.67
2017-04-09T12:26:54.142Z,26.58
2017-04-09T12:28:03.809Z,26.68
2017-04-09T12:29:13.768Z,26.48
2017-04-09T12:30:23.453Z,26.57
2017-04-09T12:31:34.014Z,26.58
2017-04-09T12:32:43.677Z,26.58
2017-04-09T12:33:53.964Z,26.48
2017-04-09T12:35:03.968Z,26.58
2017-04-09T12:36:14.253Z,26.48
2017-04-09T12:37:24.805Z,26.58
2017-04-09T12:38:34.470Z,26.58
2017-04-09T12:39:44.447Z,26.48
2017-04-09T12:40:54.749Z,26.28
2017-04-09T12:42:04.734Z,26.29
2017-04-09T12:43:14.981Z,26.28
2017-04-09T12:44:25.281Z,26.29
2017-04-09T12:45:35.285Z,26.29
2017-04-09T12:46:45.285Z,26.29
2017-04-09T12:47:55.594Z,26.29
2017-04-09T12:49:06.145Z,26.39
2017-04-09T12:50:16.120Z,26.29
2017-04-09T12:51:26.418Z,26.29
2017-04-09T12:52:36.407Z,26.48
2017-04-09T12:53:46.710Z,26.48
2017-04-09T12:54:56.654Z,26.39
2017-04-09T12:56:06.950Z,26.39
2017-04-09T12:57:16.924Z,26.2
2017-04-09T12:58:27.232Z,26.37
2017-04-09T12:59:37.536Z,26.29
2017-04-09T13:00:47.448Z,26.39
2017-04-09T13:01:57.741Z,26.39
2017-04-09T13:03:07.718Z,26.48
2017-04-09T13:04:17.705Z,26.58
2017-04-09T13:05:28.013Z,26.2
2017-04-09T13:06:38.563Z,26.39
2017-04-09T13:07:49.074Z,26.2
2017-04-09T13:08:59.376Z,26.48
2017-04-09T13:10:09.356Z,26.39
2017-04-09T13:11:19.645Z,26.2
2017-04-09T13:12:30.180Z,26.29
2017-04-09T13:13:40.458Z,26.2
2017-04-09T13:14:50.748Z,26.2
2017-04-09T13:16:00.414Z,26.29
2017-04-09T13:17:10.704Z,26.39
2017-04-09T13:18:20.934Z,26.39
2017-04-09T13:19:31.232Z,26.39
2017-04-09T13:20:41.203Z,26.29
2017-04-09T13:21:51.497Z,26.39
2017-04-09T13:23:01.781Z,26.2
2017-04-09T13:24:12.379Z,26.48
2017-04-09T13:25:22.673Z,26.2
2017-04-09T13:26:32.978Z,26.2
2017-04-09T13:27:43.259Z,26.29
2017-04-09T13:28:53.537Z,26.29
2017-04-09T13:30:03.439Z,26.2
2017-04-09T13:31:13.780Z,26.2
2017-04-09T13:32:23.447Z,26.48
2017-04-09T13:33:33.747Z,26.48
2017-04-09T13:34:44.055Z,26.29
2017-04-09T13:35:53.966Z,26.29
2017-04-09T13:37:04.250Z,26.29
2017-04-09T13:38:14.544Z,26.39
2017-04-09T13:39:24.852Z,26.2
2017-04-09T13:40:35.144Z,26.29
2017-04-09T13:41:45.386Z,26.1
2017-04-09T13:42:55.680Z,26.29
2017-04-09T13:44:05.999Z,26.1
2017-04-09T13:45:16.297Z,26.29
2017-04-09T13:46:26.272Z,26.29
2017-04-09T13:47:36.496Z,26.2
2017-04-09T13:48:46.774Z,26.2
2017-04-09T13:49:57.072Z,26.2
2017-04-09T13:51:07.091Z,26.2
2017-04-09T13:52:17.373Z,26.39
2017-04-09T13:53:27.615Z,26.2
2017-04-09T13:54:37.906Z,26.29
2017-04-09T13:55:47.569Z,26.29
2017-04-09T13:56:57.556Z,26.2
2017-04-09T13:58:07.549Z,26.2
2017-04-09T13:59:18.074Z,26.2
2017-04-09T14:00:27.743Z,26.2
2017-04-09T14:01:38.025Z,26.2
2017-04-09T14:02:48.301Z,26.1
2017-04-09T14:03:58.595Z,26.29
2017-04-09T14:05:09.129Z,26.2
2017-04-09T14:06:19.158Z,26.2
2017-04-09T14:07:29.440Z,26.2
2017-04-09T14:08:39.098Z,26.29
2017-04-09T14:09:49.077Z,26.2
2017-04-09T14:10:59.302Z,26.2
2017-04-09T14:12:09.499Z,26
2017-04-09T14:13:19.465Z,26.1
2017-04-09T14:14:29.763Z,26
2017-04-09T14:15:40.044Z,26.29
2017-04-09T14:16:50.621Z,26.2
2017-04-09T14:18:00.925Z,26.1
2017-04-09T14:19:11.223Z,26.2
2017-04-09T14:20:21.509Z,26
2017-04-09T14:21:31.803Z,26.1
2017-04-09T14:22:42.353Z,25.91
2017-04-09T14:23:52.637Z,26
2017-04-09T14:25:02.919Z,26
2017-04-09T14:26:13.199Z,26
2017-04-09T14:27:23.496Z,26.2
2017-04-09T14:28:34.107Z,26.1
2017-04-09T14:29:44.111Z,26
2017-04-09T14:30:54.087Z,26
2017-04-09T14:32:04.078Z,26.2
2017-04-09T14:33:14.370Z,26.1
2017-04-09T14:34:24.911Z,26.2
2017-04-09T14:35:34.903Z,26.2
2017-04-09T14:36:45.185Z,26.29
2017-04-09T14:37:55.465Z,26.2
2017-04-09T14:39:05.751Z,26.2
2017-04-09T14:40:16.308Z,26.2
2017-04-09T14:41:26.613Z,26.2
2017-04-09T14:42:36.588Z,26.2
2017-04-09T14:43:46.569Z,26.2
2017-04-09T14:44:56.549Z,26.2
2017-04-09T14:46:06.451Z,26
2017-04-09T14:47:16.735Z,26.2
2017-04-09T14:48:27.037Z,26
2017-04-09T14:49:37.334Z,26.1
2017-04-09T14:50:47.311Z,26.2
2017-04-09T14:51:57.533Z,26.2
2017-04-09T14:53:07.821Z,26.2
2017-04-09T14:54:18.134Z,26.29
2017-04-09T14:55:28.420Z,26.2
2017-04-09T14:56:38.417Z,26.29
2017-04-09T14:57:48.954Z,26.2
2017-04-09T14:58:59.256Z,26.2
2017-04-09T15:00:09.549Z,26.2
2017-04-09T15:01:19.836Z,26.1
2017-04-09T15:02:29.819Z,26.2
2017-04-09T15:03:40.362Z,26.29
2017-04-09T15:04:50.645Z,26.29
2017-04-09T15:06:00.938Z,26.1
2017-04-09T15:07:11.222Z,26.2
2017-04-09T15:08:21.559Z,26.2
2017-04-09T15:09:32.101Z,26
2017-04-09T15:10:42.077Z,26
2017-04-09T15:11:52.358Z,26.29